createdAt,value
2019-04-21T00:01:01.472Z,11.9
2019-04-21T00:02:13.577Z,9.9
2019-04-21T00:03:25.903Z,10.4
2019-04-21T00:04:38.170Z,11.7
2019-04-21T00:05:50.389Z,11.1
2019-04-21T00:07:02.445Z,12.2
2019-04-21T00:08:14.634Z,12.8
2019-04-21T00:09:26.743Z,11.7
2019-04-21T00:10:38.997Z,9.3
2019-04-21T00:11:51.125Z,10.5
2019-04-21T00:13:03.468Z,10
2019-04-21T00:14:15.965Z,12
2019-04-21T00:15:27.797Z,10.9
2019-04-21T00:16:39.912Z,11.3
2019-04-21T00:17:52.387Z,12.5
2019-04-21T00:19:04.382Z,10.6
2019-04-21T00:20:16.600Z,11.3
2019-04-21T00:21:28.784Z,10.7
2019-04-21T00:22:41.019Z,11.5
2019-04-21T00:23:53.050Z,10.7
2019-04-21T00:25:05.397Z,12.4
2019-04-21T00:26:17.459Z,11.5
2019-04-21T00:27:29.668Z,11.9
2019-04-21T00:28:41.896Z,11.1
2019-04-21T00:29:54.220Z,10.1
2019-04-21T00:31:06.330Z,12.2
2019-04-21T00:32:18.518Z,11.8
2019-04-21T00:33:30.693Z,11.6
2019-04-21T00:34:42.908Z,10.7
2019-04-21T00:35:54.985Z,12.2
2019-04-21T00:37:07.298Z,10.1
2019-04-21T00:38:19.533Z,11.6
2019-04-21T00:39:31.670Z,11.9
2019-04-21T00:40:43.756Z,12.6
2019-04-21T00:41:56.053Z,10.9
2019-04-21T00:43:08.268Z,11.5
2019-04-21T00:44:20.373Z,11.5
2019-04-21T00:45:33.938Z,14.9
2019-04-21T00:46:45.031Z,13.4
2019-04-21T00:47:57.028Z,10.7
2019-04-21T00:49:09.369Z,11.7
2019-04-21T00:50:21.393Z,13.4
2019-04-21T00:51:33.600Z,13.6
2019-04-21T00:52:45.770Z,11.7
2019-04-21T00:53:58.008Z,10.8
2019-04-21T00:55:10.306Z,12.6
2019-04-21T00:57:34.570Z,10.9
2019-04-21T00:58:46.730Z,10.2
2019-04-21T00:59:58.861Z,10.5
2019-04-21T01:01:11.233Z,10.8
2019-04-21T01:02:23.277Z,11.7
2019-04-21T01:03:35.534Z,10.2
2019-04-21T01:04:47.631Z,10.7
2019-04-21T01:05:59.951Z,11.3
2019-04-21T01:07:12.158Z,11.5
2019-04-21T01:08:24.335Z,11.9
2019-04-21T01:09:36.432Z,10.7
2019-04-21T01:10:48.764Z,11.4
2019-04-21T01:12:00.869Z,10.2
2019-04-21T01:13:13.201Z,12.3
2019-04-21T01:14:25.178Z,13.8
2019-04-21T01:15:37.429Z,13.3
2019-04-21T01:16:49.641Z,10.7
2019-04-21T01:18:01.861Z,14.8
2019-04-21T01:19:14.168Z,12.2
2019-04-21T01:20:26.301Z,10.7
2019-04-21T01:21:38.486Z,12.5
2019-04-21T01:22:50.655Z,11.2
2019-04-21T01:24:02.723Z,11.4
2019-04-21T01:25:15.095Z,13
2019-04-21T01:26:27.127Z,14.2
2019-04-21T01:27:39.428Z,11.5
2019-04-21T01:28:51.605Z,13.9
2019-04-21T01:30:03.784Z,10.9
2019-04-21T01:31:16.089Z,12.3
2019-04-21T01:32:28.169Z,13.3
2019-04-21T01:33:40.283Z,11.1
2019-04-21T01:34:52.469Z,14.4
2019-04-21T01:36:04.672Z,11.9
2019-04-21T01:37:17.060Z,10.5
2019-04-21T01:38:29.054Z,13.5
2019-04-21T01:39:41.342Z,15.5
2019-04-21T01:40:53.443Z,11.6
2019-04-21T01:42:05.699Z,12.3
2019-04-21T01:43:17.924Z,10.7
2019-04-21T01:44:30.124Z,15.5
2019-04-21T01:45:42.210Z,12.1
2019-04-21T01:46:54.513Z,12.5
2019-04-21T01:48:06.762Z,12.4
2019-04-21T01:49:18.880Z,14.1
2019-04-21T01:50:30.991Z,13.1
2019-04-21T01:51:43.327Z,10.9
2019-04-21T01:52:55.483Z,11.4
2019-04-21T01:54:07.741Z,12.9
2019-04-21T01:55:19.857Z,12.3
2019-04-21T01:56:32.031Z,13.9
2019-04-21T01:57:44.195Z,11.6
2019-04-21T01:58:56.538Z,14.2
2019-04-21T02:00:08.541Z,12.4
2019-04-21T02:01:20.823Z,11.1
2019-04-21T02:02:32.898Z,12
2019-04-21T02:03:46.677Z,12.4
2019-04-21T02:04:57.416Z,12.1
2019-04-21T02:06:09.633Z,11.4
2019-04-21T02:07:21.914Z,13.7
2019-04-21T02:08:33.949Z,14.9
2019-04-21T02:09:46.082Z,12.2
2019-04-21T02:10:58.365Z,11.8
2019-04-21T02:12:10.475Z,12.3
2019-04-21T02:13:22.762Z,12.4
2019-04-21T02:14:34.876Z,11.1
2019-04-21T02:15:47.325Z,12.1
2019-04-21T02:16:59.253Z,10.8
2019-04-21T02:18:11.423Z,13.4
2019-04-21T02:19:23.711Z,10.8
2019-04-21T02:20:35.897Z,14.8
2019-04-21T02:21:48.064Z,11.9
2019-04-21T02:23:00.343Z,12.3
2019-04-21T02:24:12.407Z,13.9
2019-04-21T02:25:25.228Z,11
2019-04-21T02:26:38.335Z,12.9
2019-04-21T02:27:49.059Z,14.5
2019-04-21T02:29:01.170Z,12
2019-04-21T02:30:13.455Z,12.6
2019-04-21T02:31:25.650Z,14.9
2019-04-21T02:32:37.756Z,13.7
2019-04-21T02:33:49.949Z,14.2
2019-04-21T02:35:02.214Z,12.3
2019-04-21T02:36:14.356Z,11.5
2019-04-21T02:37:26.688Z,13
2019-04-21T02:38:38.723Z,13.8
2019-04-21T02:39:51.020Z,14.5
2019-04-21T02:41:03.138Z,13
2019-04-21T02:42:15.376Z,10.9
2019-04-21T02:43:27.617Z,13
2019-04-21T02:44:39.885Z,14
2019-04-21T02:45:55.326Z,12.7
2019-04-21T02:47:08.127Z,13.1
2019-04-21T02:48:17.550Z,11.5
2019-04-21T02:49:28.732Z,11.4
2019-04-21T02:50:40.665Z,11.9
2019-04-21T02:51:53.060Z,12.6
2019-04-21T02:53:05.048Z,11.9
2019-04-21T02:54:17.253Z,15.3
2019-04-21T02:55:29.576Z,13.3
2019-04-21T02:56:41.751Z,12.4
2019-04-21T02:57:53.803Z,14.2
2019-04-21T02:59:06.109Z,14.5
2019-04-21T03:00:18.354Z,12.6
2019-04-21T03:01:30.547Z,14
2019-04-21T03:02:42.777Z,12.1
2019-04-21T03:03:54.924Z,13.9
2019-04-21T03:05:07.197Z,15.2
2019-04-21T03:06:24.562Z,13.7
2019-04-21T03:07:31.465Z,13.5
2019-04-21T03:08:43.634Z,12
2019-04-21T03:09:55.753Z,14.5
2019-04-21T03:11:08.024Z,15.2
2019-04-21T03:12:20.245Z,13.6
2019-04-21T03:13:32.517Z,13.3
2019-04-21T03:14:44.518Z,13.4
2019-04-21T03:15:57.549Z,14.2
2019-04-21T03:17:08.897Z,14.2
2019-04-21T03:18:21.233Z,14.4
2019-04-21T03:19:33.489Z,15.4
2019-04-21T03:20:45.585Z,13
2019-04-21T03:21:57.681Z,13.2
2019-04-21T03:23:09.969Z,15.4
2019-04-21T03:24:22.059Z,14.4
2019-04-21T03:25:34.337Z,13.5
2019-04-21T03:26:46.577Z,13.8
2019-04-21T03:27:58.737Z,13.7
2019-04-21T03:29:10.866Z,13.8
2019-04-21T03:30:23.242Z,14.1
2019-04-21T03:31:35.346Z,16.4
2019-04-21T03:32:50.296Z,16.3
2019-04-21T03:34:03.593Z,13.9
2019-04-21T03:35:11.879Z,13.5
2019-04-21T03:36:24.085Z,13.7
2019-04-21T03:37:36.175Z,13.3
2019-04-21T03:38:48.397Z,15.5
2019-04-21T03:40:00.666Z,14.7
2019-04-21T03:41:12.777Z,13
2019-04-21T03:42:25.073Z,14
2019-04-21T03:43:37.255Z,14.9
2019-04-21T03:44:49.451Z,14.8
2019-04-21T03:46:01.765Z,16.3
2019-04-21T03:47:13.860Z,14.8
2019-04-21T03:48:26.013Z,16
2019-04-21T03:49:38.219Z,16
2019-04-21T03:50:50.398Z,13.5
2019-04-21T03:52:02.596Z,14.7
2019-04-21T03:53:14.701Z,12.6
2019-04-21T03:54:27.020Z,14.8
2019-04-21T03:55:39.256Z,17.2
2019-04-21T03:56:51.408Z,13.2
2019-04-21T03:58:03.518Z,16.2
2019-04-21T03:59:15.804Z,14
2019-04-21T04:00:27.879Z,14
2019-04-21T04:01:40.177Z,16.4
2019-04-21T04:02:52.246Z,15.7
2019-04-21T04:04:04.612Z,15.3
2019-04-21T04:05:16.640Z,17.1
2019-04-21T04:06:28.911Z,15.5
2019-04-21T04:07:41.166Z,15.7
2019-04-21T04:08:53.380Z,14.2
2019-04-21T04:10:05.485Z,15.1
2019-04-21T04:11:17.679Z,15.3
2019-04-21T04:12:29.892Z,15
2019-04-21T04:13:42.047Z,15.3
2019-04-21T04:14:57.590Z,20.5
2019-04-21T04:16:09.974Z,14.4
2019-04-21T04:17:18.589Z,13.8
2019-04-21T04:18:30.993Z,15.5
2019-04-21T04:19:43.122Z,13.7
2019-04-21T04:20:55.235Z,13.6
2019-04-21T04:22:07.351Z,13.7
2019-04-21T04:23:19.626Z,13.2
2019-04-21T04:24:31.777Z,12.2
2019-04-21T04:25:44.039Z,13.4
2019-04-21T04:26:56.102Z,12.8
2019-04-21T04:28:08.369Z,14.2
2019-04-21T04:29:20.606Z,12.5
2019-04-21T04:30:32.802Z,13.6
2019-04-21T04:31:44.991Z,12
2019-04-21T04:32:57.164Z,13.7
2019-04-21T04:34:09.307Z,15.6
2019-04-21T04:35:21.590Z,14
2019-04-21T04:36:33.770Z,13.5
2019-04-21T04:37:45.960Z,15.9
2019-04-21T04:38:58.054Z,14.6
2019-04-21T04:40:10.344Z,11.5
2019-04-21T04:41:22.763Z,15.3
2019-04-21T04:42:34.720Z,11.8
2019-04-21T04:43:46.924Z,14.6
2019-04-21T04:44:59.094Z,12.2
2019-04-21T04:46:11.250Z,12.2
2019-04-21T04:47:23.503Z,14.9
2019-04-21T04:48:35.661Z,14.3
2019-04-21T04:49:47.892Z,12
2019-04-21T04:51:00.062Z,15.2
2019-04-21T04:52:12.352Z,12.3
2019-04-21T04:53:24.410Z,16.4
2019-04-21T04:54:36.656Z,12.8
2019-04-21T04:55:48.964Z,14.6
2019-04-21T04:57:01.068Z,15.8
2019-04-21T04:58:13.129Z,14.1
2019-04-21T04:59:25.502Z,14.1
2019-04-21T05:00:37.611Z,13.1
2019-04-21T05:01:49.938Z,11.8
2019-04-21T05:03:01.940Z,13.1
2019-04-21T05:04:14.243Z,13.5
2019-04-21T05:05:26.354Z,12.5
2019-04-21T05:06:38.598Z,13.7
2019-04-21T05:07:50.794Z,12.2
2019-04-21T05:09:02.987Z,13.7
2019-04-21T05:10:15.073Z,14.4
2019-04-21T05:11:27.414Z,14.7
2019-04-21T05:12:41.756Z,14.5
2019-04-21T05:13:54.430Z,14.4
2019-04-21T05:15:03.850Z,17.6
2019-04-21T05:16:16.149Z,13.2
2019-04-21T05:17:28.260Z,13.8
2019-04-21T05:18:40.541Z,14.4
2019-04-21T05:19:52.709Z,12.8
2019-04-21T05:21:04.895Z,13
2019-04-21T05:22:17.015Z,12
2019-04-21T05:23:29.316Z,12.8
2019-04-21T05:24:41.380Z,11.8
2019-04-21T05:25:53.691Z,13.4
2019-04-21T05:27:05.802Z,15.3
2019-04-21T05:28:17.987Z,12.5
2019-04-21T05:29:30.147Z,13.7
2019-04-21T05:30:42.485Z,14
2019-04-21T05:31:54.635Z,12.2
2019-04-21T05:33:06.838Z,15.3
2019-04-21T05:34:18.952Z,15.4
2019-04-21T05:35:31.221Z,14.9
2019-04-21T05:36:43.323Z,12.9
2019-04-21T05:37:55.610Z,15.4
2019-04-21T05:39:07.742Z,12.2
2019-04-21T05:40:19.991Z,14.2
2019-04-21T05:41:32.093Z,15.2
2019-04-21T05:42:44.381Z,12.7
2019-04-21T05:43:56.683Z,12
2019-04-21T05:45:08.785Z,13.6
2019-04-21T05:46:20.870Z,15
2019-04-21T05:47:33.190Z,15.1
2019-04-21T05:48:45.307Z,11.9
2019-04-21T05:49:57.550Z,13.3
2019-04-21T05:51:09.649Z,14.8
2019-04-21T05:52:21.927Z,13.3
2019-04-21T05:53:34.041Z,14.1
2019-04-21T05:54:46.311Z,12.9
2019-04-21T05:55:58.608Z,12.3
2019-04-21T05:57:10.728Z,14.6
2019-04-21T05:58:22.791Z,13.4
2019-04-21T05:59:36.979Z,13.8
2019-04-21T06:00:47.210Z,11.6
2019-04-21T06:01:59.480Z,12.9
2019-04-21T06:03:11.649Z,12.3
2019-04-21T06:04:23.794Z,11.6
2019-04-21T06:05:36.055Z,11.8
2019-04-21T06:06:48.244Z,13.3
2019-04-21T06:08:00.527Z,14.1
2019-04-21T06:09:12.628Z,12.2
2019-04-21T06:10:24.737Z,15.4
2019-04-21T06:11:37.037Z,12.2
2019-04-21T06:12:49.128Z,13.7
2019-04-21T06:14:01.484Z,13.6
2019-04-21T06:15:13.513Z,11.4
2019-04-21T06:16:25.797Z,12.1
2019-04-21T06:17:37.890Z,13.5
2019-04-21T06:18:50.330Z,14.3
2019-04-21T06:20:02.388Z,14.2
2019-04-21T06:21:14.584Z,12.6
2019-04-21T06:22:26.698Z,12.9
2019-04-21T06:23:38.978Z,13.5
2019-04-21T06:24:51.068Z,13.9
2019-04-21T06:26:05.338Z,14.1
2019-04-21T06:27:19.541Z,14
2019-04-21T06:28:27.640Z,15
2019-04-21T06:29:39.880Z,12.1
2019-04-21T06:30:52.145Z,14
2019-04-21T06:32:04.339Z,13.5
2019-04-21T06:33:16.494Z,15.7
2019-04-21T06:34:28.594Z,14.6
2019-04-21T06:35:40.901Z,15.6
2019-04-21T06:36:53.049Z,12.7
2019-04-21T06:38:05.441Z,13.6
2019-04-21T06:39:17.386Z,12.3
2019-04-21T06:40:29.683Z,15
2019-04-21T06:41:41.767Z,14.6
2019-04-21T06:42:54.138Z,11.9
2019-04-21T06:44:06.373Z,11.5
2019-04-21T06:45:18.525Z,12.2
2019-04-21T06:46:30.558Z,12.8
2019-04-21T06:47:43.107Z,13
2019-04-21T06:48:54.973Z,12.8
2019-04-21T06:50:07.224Z,12.1
2019-04-21T06:51:19.348Z,12.4
2019-04-21T06:52:31.695Z,13.5
2019-04-21T06:53:43.718Z,12.3
2019-04-21T06:54:55.980Z,14
2019-04-21T06:56:08.409Z,12.3
2019-04-21T06:57:20.435Z,13.4
2019-04-21T06:58:32.488Z,13.7
2019-04-21T06:59:44.784Z,14.1
2019-04-21T07:00:56.862Z,12.7
2019-04-21T07:02:09.053Z,13
2019-04-21T07:03:21.288Z,13.1
2019-04-21T07:04:33.548Z,13.5
2019-04-21T07:05:45.649Z,14.4
2019-04-21T07:06:57.950Z,12.4
2019-04-21T07:08:10.276Z,13.5
2019-04-21T07:09:22.389Z,13.4
2019-04-21T07:10:34.534Z,13.4
2019-04-21T07:11:46.713Z,12.5
2019-04-21T07:12:58.802Z,12.1
2019-04-21T07:14:11.082Z,12.4
2019-04-21T07:15:23.191Z,13.8
2019-04-21T07:16:35.681Z,13
2019-04-21T07:17:47.601Z,13.2
2019-04-21T07:18:59.831Z,12.6
2019-04-21T07:21:24.220Z,13.4
2019-04-21T07:22:36.529Z,13.4
2019-04-21T07:23:48.639Z,13.4
2019-04-21T07:25:00.986Z,14.5
2019-04-21T07:26:13.019Z,13.6
2019-04-21T07:27:25.146Z,12.8
2019-04-21T07:28:37.399Z,12.5
2019-04-21T07:29:49.516Z,11
2019-04-21T07:31:01.811Z,12
2019-04-21T07:32:14.017Z,13.9
2019-04-21T07:33:26.278Z,14
2019-04-21T07:34:38.316Z,11.4
2019-04-21T07:35:50.707Z,13.6
2019-04-21T07:37:02.777Z,12.3
2019-04-21T07:38:14.949Z,13.5
2019-04-21T07:39:27.065Z,12.1
2019-04-21T07:40:39.372Z,11.3
2019-04-21T07:41:51.714Z,12.5
2019-04-21T07:43:03.749Z,12.6
2019-04-21T07:44:15.937Z,12.3
2019-04-21T07:45:28.088Z,11.2
2019-04-21T07:46:40.249Z,11.6
2019-04-21T07:47:52.529Z,10.7
2019-04-21T07:49:04.600Z,14.2
2019-04-21T07:50:16.967Z,12.1
2019-04-21T07:51:34.161Z,12.9
2019-04-21T07:52:41.286Z,13.5
2019-04-21T07:53:53.379Z,13.1
2019-04-21T07:55:05.683Z,10.5
2019-04-21T07:56:18.965Z,11.5
2019-04-21T07:58:42.176Z,10.5
2019-04-21T07:59:54.529Z,11.9
2019-04-21T08:01:06.694Z,10.7
2019-04-21T08:02:18.895Z,10.9
2019-04-21T08:03:30.939Z,12.3
2019-04-21T08:04:43.292Z,10.9
2019-04-21T08:05:55.457Z,10.3
2019-04-21T08:07:07.629Z,10.4
2019-04-21T08:08:19.894Z,11.1
2019-04-21T08:09:32.030Z,10.8
2019-04-21T08:10:44.162Z,11
2019-04-21T08:11:56.336Z,13.3
2019-04-21T08:13:08.512Z,11.2
2019-04-21T08:14:20.796Z,11.5
2019-04-21T08:15:32.900Z,11.6
2019-04-21T08:16:45.178Z,11.3
2019-04-21T08:18:02.456Z,10.7
2019-04-21T08:19:09.594Z,12.1
2019-04-21T08:20:21.780Z,10.8
2019-04-21T08:21:33.960Z,11
2019-04-21T08:22:46.346Z,10.8
2019-04-21T08:23:58.366Z,11.4
2019-04-21T08:25:10.495Z,11.7
2019-04-21T08:26:22.776Z,9.9
2019-04-21T08:27:34.840Z,11.1
2019-04-21T08:28:47.170Z,9.6
2019-04-21T08:29:59.238Z,10.4
2019-04-21T08:31:11.642Z,10.3
2019-04-21T08:32:23.747Z,10.6
2019-04-21T08:33:35.926Z,9.9
2019-04-21T08:34:48.047Z,9.8
2019-04-21T08:36:00.240Z,11.5
2019-04-21T08:37:12.439Z,11.3
2019-04-21T08:38:24.970Z,12.7
2019-04-21T08:39:37.460Z,9.9
2019-04-21T08:40:49.137Z,12.4
2019-04-21T08:42:01.201Z,10
2019-04-21T08:43:13.439Z,10
2019-04-21T08:44:25.710Z,9.5
2019-04-21T08:45:37.925Z,11.3
2019-04-21T08:46:50.034Z,13.1
2019-04-21T08:48:02.280Z,10.3
2019-04-21T08:49:14.420Z,10.9
2019-04-21T08:50:26.649Z,11.9
2019-04-21T08:51:38.810Z,8
2019-04-21T08:52:51.055Z,12.7
2019-04-21T08:54:03.193Z,9.6
2019-04-21T08:55:15.566Z,9.8
2019-04-21T08:56:28.384Z,9.8
2019-04-21T08:57:40.072Z,9.1
2019-04-21T08:58:51.956Z,8.9
2019-04-21T09:00:04.254Z,9.1
2019-04-21T09:01:16.353Z,8.9
2019-04-21T09:02:28.654Z,9.1
2019-04-21T09:03:40.722Z,12.7
2019-04-21T09:04:53.032Z,11.7
2019-04-21T09:06:05.257Z,9.2
2019-04-21T09:07:18.675Z,8.5
2019-04-21T09:08:29.611Z,8.7
2019-04-21T09:09:41.888Z,9.7
2019-04-21T09:10:53.954Z,8.8
2019-04-21T09:12:06.141Z,11
2019-04-21T09:13:18.304Z,8.2
2019-04-21T09:14:30.712Z,7.9
2019-04-21T09:15:42.707Z,11.2
2019-04-21T09:16:54.992Z,8.2
2019-04-21T09:18:07.167Z,8.8
2019-04-21T09:19:19.381Z,9.3
2019-04-21T09:20:31.568Z,7.9
2019-04-21T09:21:43.787Z,11
2019-04-21T09:22:55.866Z,8.8
2019-04-21T09:24:08.151Z,7.7
2019-04-21T09:25:20.452Z,8.2
2019-04-21T09:26:32.565Z,8.6
2019-04-21T09:27:44.667Z,8.3
2019-04-21T09:28:56.959Z,9
2019-04-21T09:30:09.047Z,7.7
2019-04-21T09:31:21.445Z,9.3
2019-04-21T09:32:33.549Z,9.5
2019-04-21T09:33:45.771Z,8.2
2019-04-21T09:34:57.853Z,8.8
2019-04-21T09:36:10.209Z,7.9
2019-04-21T09:37:22.245Z,7.6
2019-04-21T09:38:34.532Z,8.4
2019-04-21T09:39:46.641Z,8.8
2019-04-21T09:40:58.908Z,10.1
2019-04-21T09:42:11.018Z,8.9
2019-04-21T09:43:23.436Z,7.2
2019-04-21T09:44:35.603Z,8
2019-04-21T09:45:47.713Z,8.5
2019-04-21T09:47:05.649Z,8.3
2019-04-21T09:48:12.179Z,8.7
2019-04-21T09:49:24.342Z,7.3
2019-04-21T09:50:36.535Z,8.8
2019-04-21T09:51:48.629Z,9.1
2019-04-21T09:53:01.023Z,9.4
2019-04-21T09:54:13.057Z,6.9
2019-04-21T09:55:25.456Z,6.9
2019-04-21T09:56:37.556Z,9.5
2019-04-21T09:57:49.680Z,9.2
2019-04-21T09:59:01.832Z,6.7
2019-04-21T10:00:14.051Z,7.1
2019-04-21T10:01:26.204Z,6.6
2019-04-21T10:02:38.486Z,7.2
2019-04-21T10:03:50.838Z,7.3
2019-04-21T10:05:02.842Z,7.5
2019-04-21T10:06:15.042Z,8.1
2019-04-21T10:07:27.244Z,10
2019-04-21T10:08:39.444Z,7.3
2019-04-21T10:09:51.913Z,6.4
2019-04-21T10:11:03.783Z,6.5
2019-04-21T10:12:15.984Z,7.6
2019-04-21T10:13:28.832Z,8.2
2019-04-21T10:14:40.421Z,8.3
2019-04-21T10:15:52.518Z,7.7
2019-04-21T10:17:04.833Z,7.8
2019-04-21T10:18:16.928Z,9.5
2019-04-21T10:19:29.347Z,7.3
2019-04-21T10:20:41.469Z,7.9
2019-04-21T10:21:53.632Z,8.5
2019-04-21T10:23:05.715Z,7
2019-04-21T10:24:18.090Z,7.4
2019-04-21T10:25:30.312Z,7
2019-04-21T10:26:42.391Z,6.9
2019-04-21T10:27:54.501Z,7.9
2019-04-21T10:29:06.782Z,7
2019-04-21T10:30:18.871Z,8.5
2019-04-21T10:31:31.394Z,8.7
2019-04-21T10:32:43.366Z,7.9
2019-04-21T10:33:55.559Z,7.3
2019-04-21T10:35:07.689Z,7.8
2019-04-21T10:36:19.945Z,9.1
2019-04-21T10:37:32.337Z,6.9
2019-04-21T10:38:44.512Z,7.4
2019-04-21T10:39:56.599Z,6.8
2019-04-21T10:41:08.800Z,6.7
2019-04-21T10:42:20.851Z,7.5
2019-04-21T10:43:33.150Z,8.8
2019-04-21T10:44:45.364Z,5.6
2019-04-21T10:45:57.522Z,6.2
2019-04-21T10:47:09.654Z,6
2019-04-21T10:48:24.534Z,5.2
2019-04-21T10:49:34.082Z,6
2019-04-21T10:50:46.483Z,7.2
2019-04-21T10:51:58.537Z,5.3
2019-04-21T10:53:10.764Z,5.3
2019-04-21T10:54:22.943Z,8.3
2019-04-21T10:55:35.365Z,6.1
2019-04-21T10:56:47.319Z,7.2
2019-04-21T10:57:59.513Z,7.1
2019-04-21T10:59:11.618Z,5.6
2019-04-21T11:00:23.816Z,6.8
2019-04-21T11:01:36.008Z,5.7
2019-04-21T11:02:48.290Z,4.6
2019-04-21T11:04:00.397Z,6
2019-04-21T11:05:12.679Z,5.1
2019-04-21T11:06:24.931Z,5.4
2019-04-21T11:07:37.169Z,4.7
2019-04-21T11:08:49.345Z,6.1
2019-04-21T11:10:01.491Z,6
2019-04-21T11:11:13.694Z,4.4
2019-04-21T11:12:25.885Z,4.9
2019-04-21T11:13:38.017Z,4.4
2019-04-21T11:14:50.288Z,5.1
2019-04-21T11:16:02.366Z,4.2
2019-04-21T11:17:14.690Z,5.1
2019-04-21T11:18:26.772Z,5.9
2019-04-21T11:19:39.088Z,5.5
2019-04-21T11:20:51.407Z,4.4
2019-04-21T11:22:03.489Z,6
2019-04-21T11:23:15.560Z,4
2019-04-21T11:24:27.924Z,4.3
2019-04-21T11:25:40.679Z,4.5
2019-04-21T11:28:04.353Z,4.3
2019-04-21T11:29:16.642Z,4.2
2019-04-21T11:30:28.721Z,6.1
2019-04-21T11:31:41.055Z,4
2019-04-21T11:32:53.241Z,5.9
2019-04-21T11:34:05.462Z,4.2
2019-04-21T11:35:17.515Z,4.6
2019-04-21T11:36:29.847Z,6.1
2019-04-21T11:37:41.929Z,4.3
2019-04-21T11:38:54.215Z,5.6
2019-04-21T11:40:06.389Z,6
2019-04-21T11:41:18.592Z,4.6
2019-04-21T11:42:30.694Z,4.2
2019-04-21T11:43:43.065Z,5.2
2019-04-21T11:44:55.285Z,4.3
2019-04-21T11:46:07.513Z,5.7
2019-04-21T11:47:19.474Z,5.2
2019-04-21T11:48:31.810Z,5.8
2019-04-21T11:49:44.057Z,4.3
2019-04-21T11:50:56.188Z,5.3
2019-04-21T11:52:08.281Z,4.1
2019-04-21T11:53:20.579Z,4.8
2019-04-21T11:54:32.662Z,5.1
2019-04-21T11:55:44.958Z,6.3
2019-04-21T11:56:57.159Z,4.9
2019-04-21T11:58:09.470Z,5.6
2019-04-21T11:59:21.509Z,4.7
2019-04-21T12:00:33.849Z,6.3
2019-04-21T12:01:46.024Z,7.5
2019-04-21T12:02:58.132Z,5.1
2019-04-21T12:04:10.262Z,6.4
2019-04-21T12:05:22.771Z,5.3
2019-04-21T12:06:34.619Z,6
2019-04-21T12:07:46.913Z,5.9
2019-04-21T12:08:59.154Z,5.2
2019-04-21T12:10:11.328Z,5
2019-04-21T12:11:23.390Z,6.4
2019-04-21T12:12:35.732Z,4.9
2019-04-21T12:13:47.872Z,6.9
2019-04-21T12:15:00.070Z,5.6
2019-04-21T12:16:12.185Z,8.8
2019-04-21T12:17:24.469Z,5.5
2019-04-21T12:18:36.568Z,6.2
2019-04-21T12:19:48.897Z,7.3
2019-04-21T12:21:01.053Z,7.7
2019-04-21T12:22:13.325Z,5.9
2019-04-21T12:23:25.431Z,6.7
2019-04-21T12:24:37.646Z,7
2019-04-21T12:25:49.782Z,6.5
2019-04-21T12:27:02.110Z,7.3
2019-04-21T12:28:14.123Z,6
2019-04-21T12:29:26.454Z,5.9
2019-04-21T12:30:38.571Z,7.3
2019-04-21T12:31:50.867Z,7.7
2019-04-21T12:33:04.498Z,7.1
2019-04-21T12:34:15.202Z,6.6
2019-04-21T12:35:27.337Z,5.9
2019-04-21T12:36:39.591Z,6.3
2019-04-21T12:37:51.752Z,7.4
2019-04-21T12:39:03.997Z,6.2
2019-04-21T12:40:16.187Z,6.7
2019-04-21T12:41:28.365Z,6.3
2019-04-21T12:42:40.516Z,5.8
2019-04-21T12:43:52.856Z,6.5
2019-04-21T12:45:05.066Z,6.3
2019-04-21T12:46:17.229Z,8.1
2019-04-21T12:47:29.246Z,6
2019-04-21T12:48:41.561Z,7.9
2019-04-21T12:49:53.760Z,5.7
2019-04-21T12:51:05.927Z,7.9
2019-04-21T12:52:18.267Z,5.9
2019-04-21T12:53:30.405Z,6
2019-04-21T12:54:42.492Z,5.4
2019-04-21T12:55:58.436Z,5.5
2019-04-21T12:57:06.919Z,6
2019-04-21T12:58:19.110Z,6
2019-04-21T12:59:31.282Z,6.5
2019-04-21T13:00:43.527Z,6
2019-04-21T13:01:55.602Z,5.8
2019-04-21T13:03:07.855Z,6.5
2019-04-21T13:04:20.068Z,6.9
2019-04-21T13:05:32.308Z,6.6
2019-04-21T13:06:44.435Z,5.7
2019-04-21T13:07:56.674Z,5.7
2019-04-21T13:09:08.884Z,6.9
2019-04-21T13:10:21.036Z,5.8
2019-04-21T13:11:33.203Z,5.2
2019-04-21T13:12:45.472Z,7.1
2019-04-21T13:13:57.586Z,7.7
2019-04-21T13:15:09.842Z,5.2
2019-04-21T13:16:21.991Z,7.3
2019-04-21T13:17:34.387Z,5.1
2019-04-21T13:18:46.401Z,5.3
2019-04-21T13:19:58.620Z,6.9
2019-04-21T13:21:10.836Z,6.7
2019-04-21T13:22:23.021Z,5.6
2019-04-21T13:23:35.588Z,6.6
2019-04-21T13:24:47.412Z,6.8
2019-04-21T13:25:59.522Z,4.7
2019-04-21T13:27:11.799Z,5
2019-04-21T13:28:23.896Z,5.6
2019-04-21T13:29:36.181Z,5.6
2019-04-21T13:30:48.335Z,5.6
2019-04-21T13:32:00.619Z,6.2
2019-04-21T13:33:12.776Z,4.6
2019-04-21T13:34:25.036Z,5.2
2019-04-21T13:35:37.104Z,4.5
2019-04-21T13:36:49.394Z,5.7
2019-04-21T13:38:01.530Z,6.1
2019-04-21T13:39:17.638Z,5.3
2019-04-21T13:40:25.878Z,5
2019-04-21T13:41:38.054Z,5
2019-04-21T13:42:50.317Z,4.7
2019-04-21T13:44:02.596Z,5.9
2019-04-21T13:45:14.722Z,4.9
2019-04-21T13:46:26.929Z,5.4
2019-04-21T13:47:39.029Z,4.9
2019-04-21T13:48:51.443Z,5.2
2019-04-21T13:50:03.468Z,6
2019-04-21T13:51:15.778Z,6.3
2019-04-21T13:52:27.809Z,5.5
2019-04-21T13:53:40.185Z,6.1
2019-04-21T13:54:52.206Z,4.4
2019-04-21T13:56:04.516Z,5.1
2019-04-21T13:57:16.707Z,5.3
2019-04-21T13:58:28.965Z,8.8
2019-04-21T13:59:40.998Z,5.5
2019-04-21T14:00:53.261Z,5.6
2019-04-21T14:02:05.505Z,6
2019-04-21T14:03:17.673Z,6.1
2019-04-21T14:04:29.753Z,6.1
2019-04-21T14:05:42.146Z,5.9
2019-04-21T14:06:54.143Z,4.9
2019-04-21T14:08:06.632Z,5.6
2019-04-21T14:09:18.627Z,5.6
2019-04-21T14:10:30.847Z,5.3
2019-04-21T14:11:42.938Z,4.8
2019-04-21T14:12:55.239Z,6.1
2019-04-21T14:14:07.384Z,5.1
2019-04-21T14:15:19.628Z,7.2
2019-04-21T14:16:31.711Z,5
2019-04-21T14:17:44.002Z,6.1
2019-04-21T14:18:56.093Z,5
2019-04-21T14:20:08.412Z,5.8
2019-04-21T14:21:20.588Z,6.3
2019-04-21T14:22:32.762Z,5
2019-04-21T14:23:49.140Z,5.7
2019-04-21T14:24:57.210Z,5
2019-04-21T14:26:09.580Z,7.7
2019-04-21T14:27:21.676Z,4.5
2019-04-21T14:28:33.653Z,5.3
2019-04-21T14:29:49.177Z,5
2019-04-21T14:31:04.399Z,5.3
2019-04-21T14:32:10.291Z,5.7
2019-04-21T14:33:22.522Z,6.4
2019-04-21T14:34:34.891Z,6.9
2019-04-21T14:35:46.835Z,5.1
2019-04-21T14:36:59.105Z,5.2
2019-04-21T14:38:11.203Z,7.2
2019-04-21T14:39:23.509Z,4.7
2019-04-21T14:40:35.813Z,5.3
2019-04-21T14:41:47.894Z,5.3
2019-04-21T14:43:00.018Z,5.6
2019-04-21T14:44:12.422Z,5.6
2019-04-21T14:45:24.478Z,5.3
2019-04-21T14:46:36.707Z,6.3
2019-04-21T14:47:48.811Z,8.7
2019-04-21T14:49:01.050Z,5.4
2019-04-21T14:50:15.146Z,6.6
2019-04-21T14:51:29.764Z,5.3
2019-04-21T14:52:37.550Z,5.1
2019-04-21T14:53:49.917Z,8.3
2019-04-21T14:55:01.937Z,5.3
2019-04-21T14:56:14.381Z,5
2019-04-21T14:57:26.433Z,5.7
2019-04-21T14:58:38.584Z,6.2
2019-04-21T14:59:50.716Z,7.3
2019-04-21T15:01:03.050Z,6.6
2019-04-21T15:02:15.353Z,6.5
2019-04-21T15:03:27.420Z,5.2
2019-04-21T15:04:39.591Z,6.3
2019-04-21T15:05:51.758Z,5.9
2019-04-21T15:07:03.875Z,6
2019-04-21T15:08:16.090Z,5.1
2019-04-21T15:09:28.364Z,5
2019-04-21T15:10:40.571Z,6
2019-04-21T15:11:52.701Z,6.3
2019-04-21T15:13:05.024Z,6.1
2019-04-21T15:14:17.102Z,5.3
2019-04-21T15:15:29.350Z,8
2019-04-21T15:16:43.133Z,5.9
2019-04-21T15:17:53.913Z,6.6
2019-04-21T15:19:05.851Z,5.3
2019-04-21T15:20:19.677Z,4.8
2019-04-21T15:21:30.327Z,5.1
2019-04-21T15:22:42.528Z,8.5
2019-04-21T15:23:54.633Z,6.4
2019-04-21T15:25:06.915Z,6.7
2019-04-21T15:26:19.116Z,5.2
2019-04-21T15:27:31.192Z,5.4
2019-04-21T15:28:43.396Z,5.4
2019-04-21T15:29:55.729Z,6.7
2019-04-21T15:31:07.812Z,8.4
2019-04-21T15:32:20.008Z,5.3
2019-04-21T15:33:32.296Z,7.3
2019-04-21T15:34:44.479Z,5.2
2019-04-21T15:35:59.938Z,6
2019-04-21T15:37:12.249Z,5
2019-04-21T15:38:20.977Z,5.2
2019-04-21T15:39:33.244Z,6.2
2019-04-21T15:40:45.365Z,6
2019-04-21T15:41:57.654Z,7
2019-04-21T15:43:09.748Z,5.1
2019-04-21T15:44:22.145Z,5.4
2019-04-21T15:45:34.247Z,5.4
2019-04-21T15:46:46.533Z,4.8
2019-04-21T15:47:58.540Z,6.3
2019-04-21T15:49:10.850Z,6.1
2019-04-21T15:50:22.945Z,5.3
2019-04-21T15:51:35.235Z,5.4
2019-04-21T15:52:47.333Z,7.9
2019-04-21T15:53:59.596Z,5.1
2019-04-21T15:55:11.715Z,5.4
2019-04-21T15:56:31.976Z,4.9
2019-04-21T15:57:36.310Z,6.2
2019-04-21T15:58:48.392Z,5.8
2019-04-21T16:00:00.485Z,5.1
2019-04-21T16:01:12.771Z,5.9
2019-04-21T16:02:24.902Z,4.9
2019-04-21T16:03:37.248Z,4.8
2019-04-21T16:04:49.276Z,5.5
2019-04-21T16:06:01.529Z,7.2
2019-04-21T16:07:13.625Z,4.5
2019-04-21T16:08:25.937Z,4.7
2019-04-21T16:09:38.141Z,5.2
2019-04-21T16:10:50.414Z,6.5
2019-04-21T16:12:02.417Z,6.2
2019-04-21T16:13:14.729Z,6
2019-04-21T16:14:26.848Z,5.6
2019-04-21T16:15:39.152Z,7.1
2019-04-21T16:16:51.344Z,5.8
2019-04-21T16:18:03.548Z,6
2019-04-21T16:19:15.617Z,6.7
2019-04-21T16:20:27.859Z,4.7
2019-04-21T16:21:40.112Z,5.7
2019-04-21T16:22:52.268Z,4.7
2019-04-21T16:24:05.629Z,5.2
2019-04-21T16:25:16.578Z,5
2019-04-21T16:26:28.893Z,5.8
2019-04-21T16:27:41.088Z,6.2
2019-04-21T16:28:53.156Z,4